createdAt,value
2023-04-15T00:04:18.173Z,1063.6
2023-04-15T00:06:01.526Z,1060.3
2023-04-15T00:07:44.915Z,1056.8
2023-04-15T00:09:28.311Z,1056.1
2023-04-15T00:11:11.796Z,1056.4
2023-04-15T00:12:55.136Z,1056.3
2023-04-15T00:14:38.505Z,1052.6
2023-04-15T00:16:21.893Z,1049.6
2023-04-15T00:21:31.157Z,1044.5
2023-04-15T00:23:14.555Z,1043
2023-04-15T00:24:57.936Z,1042.8
2023-04-15T00:26:41.354Z,1041.3
2023-04-15T00:28:24.743Z,1039.4
2023-04-15T00:30:08.126Z,1039
2023-04-15T00:31:51.527Z,1034.5
2023-04-15T00:33:34.938Z,1034.6
2023-04-15T00:35:18.318Z,1030.2
2023-04-15T00:37:02.017Z,1027.7
2023-04-15T00:38:45.431Z,1027.7
2023-04-15T00:40:28.827Z,1026.1
2023-04-15T00:42:12.218Z,1025.4
2023-04-15T00:43:55.627Z,1020.3
2023-04-15T00:45:39.014Z,1018.4
2023-04-15T00:47:22.419Z,1015.5
2023-04-15T00:49:05.817Z,1013.3
2023-04-15T00:50:49.212Z,1009
2023-04-15T00:54:15.697Z,1002.3
2023-04-15T00:55:59.090Z,996.8
2023-04-15T00:57:42.525Z,994.4
2023-04-15T00:59:25.858Z,990.7
2023-04-15T01:01:09.288Z,988.1
2023-04-15T01:02:52.657Z,987.7
2023-04-15T01:04:36.075Z,1097.7
2023-04-15T01:06:19.449Z,969.5
2023-04-15T01:08:02.876Z,969.1
2023-04-15T01:11:29.327Z,962.5
2023-04-15T01:13:12.725Z,957.5
2023-04-15T01:14:56.123Z,955.4
2023-04-15T01:16:39.562Z,951.3
2023-04-15T01:18:22.905Z,947.3
2023-04-15T01:20:06.303Z,946.5
2023-04-15T01:21:49.797Z,942.2
2023-04-15T01:23:33.105Z,942.2
2023-04-15T01:28:42.426Z,939.7
2023-04-15T01:30:25.742Z,938.4
2023-04-15T01:32:09.133Z,934.4
2023-04-15T01:33:52.515Z,933.3
2023-04-15T01:35:35.922Z,930.3
2023-04-15T01:37:19.336Z,926.8
2023-04-15T01:39:02.787Z,923.3
2023-04-15T01:40:46.141Z,921.1
2023-04-15T01:42:29.518Z,921
2023-04-15T01:45:55.981Z,914
2023-04-15T01:47:39.386Z,915.3
2023-04-15T01:49:22.799Z,914.6
2023-04-15T01:51:06.182Z,913.5
2023-04-15T01:52:49.572Z,908
2023-04-15T01:54:32.979Z,906.5
2023-04-15T01:56:16.360Z,904.7
2023-04-15T01:57:59.779Z,904.2
2023-04-15T02:01:26.241Z,899.7
2023-04-15T02:03:09.640Z,897.3
2023-04-15T02:04:53.032Z,896.4
2023-04-15T02:06:36.421Z,890.7
2023-04-15T02:08:19.823Z,891.6
2023-04-15T02:10:03.230Z,891.1
2023-04-15T02:11:46.622Z,887.8
2023-04-15T02:13:30.029Z,884.4
2023-04-15T02:16:56.478Z,879.1
2023-04-15T02:18:39.899Z,877
2023-04-15T02:20:23.285Z,878.5
2023-04-15T02:22:06.682Z,876
2023-04-15T02:23:50.101Z,874.4
2023-04-15T02:25:33.486Z,871.6
2023-04-15T02:27:16.861Z,868.3
2023-04-15T02:29:00.248Z,867.8
2023-04-15T02:34:09.509Z,859.4
2023-04-15T02:35:52.940Z,858.7
2023-04-15T02:37:36.335Z,858.4
2023-04-15T02:39:19.695Z,856.4
2023-04-15T02:41:03.126Z,855.3
2023-04-15T02:42:46.481Z,851.7
2023-04-15T02:44:29.873Z,848.2
2023-04-15T02:46:13.269Z,845.8
2023-04-15T02:51:22.563Z,837.1
2023-04-15T02:53:05.903Z,833.5
2023-04-15T02:54:49.344Z,831.3
2023-04-15T02:56:32.767Z,828.7
2023-04-15T02:58:16.085Z,826.2
2023-04-15T02:59:59.483Z,824.2
2023-04-15T03:01:42.890Z,824.3
2023-04-15T03:03:26.283Z,819.6
2023-04-15T03:08:35.535Z,816.6
2023-04-15T03:10:18.948Z,813.7
2023-04-15T03:12:02.332Z,810.6
2023-04-15T03:13:45.708Z,806
2023-04-15T03:15:29.104Z,802.5
2023-04-15T03:17:12.508Z,799.8
2023-04-15T03:18:55.929Z,796.2
2023-04-15T03:20:39.293Z,793.8
2023-04-15T03:25:48.539Z,790.5
2023-04-15T03:27:31.932Z,787.1
2023-04-15T03:29:15.358Z,785.6
2023-04-15T03:30:58.735Z,785.5
2023-04-15T03:32:42.120Z,785.1
2023-04-15T03:34:25.517Z,784.6
2023-04-15T03:36:08.924Z,782.7
2023-04-15T03:37:52.317Z,779.7
2023-04-15T03:41:18.801Z,778.8
2023-04-15T03:43:02.188Z,780
2023-04-15T03:44:45.571Z,778
2023-04-15T03:46:28.978Z,773.5
2023-04-15T03:48:12.389Z,771.8
2023-04-15T03:49:55.838Z,767.2
2023-04-15T03:51:39.183Z,763
2023-04-15T03:53:22.580Z,761.7
2023-04-15T03:58:31.806Z,761.8
2023-04-15T04:00:15.209Z,758.4
2023-04-15T04:01:58.607Z,756.1
2023-04-15T04:03:42.023Z,754.8
2023-04-15T04:05:25.395Z,751.2
2023-04-15T04:07:08.913Z,752
2023-04-15T04:08:52.184Z,753.3
2023-04-15T04:10:35.596Z,753.1
2023-04-15T04:15:44.818Z,746.6
2023-04-15T04:17:28.217Z,744.5
2023-04-15T04:19:12.164Z,742.3
2023-04-15T04:20:55.012Z,742.1
2023-04-15T04:22:38.427Z,738.8
2023-04-15T04:24:21.812Z,736.3
2023-04-15T04:26:05.207Z,733.7
2023-04-15T04:27:48.615Z,729.8
2023-04-15T04:32:57.843Z,719.2
2023-04-15T04:34:41.243Z,716.8
2023-04-15T04:36:24.638Z,714.8
2023-04-15T04:38:08.035Z,712.7
2023-04-15T04:39:51.445Z,711.7
2023-04-15T04:41:34.823Z,712.6
2023-04-15T04:43:18.216Z,711.5
2023-04-15T04:45:01.624Z,708.6
2023-04-15T04:50:10.874Z,702.1
2023-04-15T04:51:54.322Z,701.2
2023-04-15T04:53:37.654Z,698.2
2023-04-15T04:55:21.052Z,697.4
2023-04-15T04:57:04.453Z,697.1
2023-04-15T04:58:47.839Z,697
2023-04-15T05:00:31.260Z,695.2
2023-04-15T05:02:14.645Z,695.8
2023-04-15T05:07:23.886Z,694.4
2023-04-15T05:09:07.314Z,693.5
2023-04-15T05:10:50.677Z,694
2023-04-15T05:12:34.073Z,690.3
2023-04-15T05:14:17.463Z,689.1
2023-04-15T05:16:00.875Z,688.5
2023-04-15T05:17:44.255Z,685.4
2023-04-15T05:19:27.657Z,683.3
2023-04-15T05:24:36.914Z,676.9
2023-04-15T05:26:20.298Z,673.6
2023-04-15T05:28:03.688Z,672.6
2023-04-15T05:29:47.121Z,670.3
2023-04-15T05:31:30.498Z,669.1
2023-04-15T05:33:13.902Z,666.7
2023-04-15T05:34:57.352Z,664.6
2023-04-15T05:36:40.719Z,662.3
2023-04-15T05:40:07.132Z,659
2023-04-15T05:41:50.533Z,656.5
2023-04-15T05:43:33.954Z,655
2023-04-15T05:45:17.318Z,655.3
2023-04-15T05:47:00.720Z,655.1
2023-04-15T05:48:44.153Z,651.6
2023-04-15T05:50:27.521Z,649.4
2023-04-15T05:52:10.989Z,647.4
2023-04-15T05:57:20.156Z,645.2
2023-04-15T05:59:03.544Z,645
2023-04-15T06:00:46.940Z,642.4
2023-04-15T06:02:30.501Z,642.4
2023-04-15T06:04:13.738Z,643.4
2023-04-15T06:05:57.130Z,643.4
2023-04-15T06:07:40.621Z,643.3
2023-04-15T06:09:23.993Z,640.5
2023-04-15T06:14:33.168Z,636.3
2023-04-15T06:16:16.564Z,636.5
2023-04-15T06:18:00.012Z,637.2
2023-04-15T06:19:43.430Z,636.6
2023-04-15T06:21:26.743Z,636.3
2023-04-15T06:23:10.202Z,636.4
2023-04-15T06:24:53.528Z,634.7
2023-04-15T06:26:36.981Z,631.2
2023-04-15T06:30:03.409Z,627.7
2023-04-15T06:31:46.806Z,627.2
2023-04-15T06:33:30.215Z,624.5
2023-04-15T06:35:13.656Z,625
2023-04-15T06:36:57.054Z,626
2023-04-15T06:38:40.412Z,625.4
2023-04-15T06:40:23.819Z,624.4
2023-04-15T06:42:07.192Z,622.3
2023-04-15T06:45:33.638Z,615.4
2023-04-15T06:47:17.130Z,616.6
2023-04-15T06:49:00.435Z,613.1
2023-04-15T06:50:43.931Z,608.3
2023-04-15T06:52:27.246Z,608.3
2023-04-15T06:54:10.637Z,607.6
2023-04-15T06:55:54.019Z,606.6
2023-04-15T06:57:37.432Z,602.1
2023-04-15T07:01:03.897Z,597.7
2023-04-15T07:02:47.288Z,596
2023-04-15T07:04:30.694Z,593.6
2023-04-15T07:06:14.220Z,592.2
2023-04-15T07:07:57.530Z,591.7
2023-04-15T07:09:40.883Z,591.5
2023-04-15T07:11:24.302Z,591.1
2023-04-15T07:13:07.752Z,591
2023-04-15T07:18:17.053Z,585.8
2023-04-15T07:20:00.538Z,584.7
2023-04-15T07:21:43.705Z,583.4
2023-04-15T07:23:27.280Z,584.2
2023-04-15T07:25:10.573Z,582.1
2023-04-15T07:26:54.076Z,579.7
2023-04-15T07:28:37.345Z,578.3
2023-04-15T07:30:20.836Z,580.1
2023-04-15T07:33:47.207Z,581.9
2023-04-15T07:35:30.578Z,582
2023-04-15T07:37:13.929Z,582.5
2023-04-15T07:38:57.510Z,583.6
2023-04-15T07:40:40.743Z,584.2
2023-04-15T07:42:24.126Z,598.5
2023-04-15T07:44:07.622Z,601.8
2023-04-15T07:45:51.111Z,600
2023-04-15T07:49:17.411Z,653.8
2023-04-15T07:51:00.976Z,678.2
2023-04-15T07:52:44.217Z,683.4
2023-04-15T07:54:27.629Z,670
2023-04-15T07:56:11.011Z,664.6
2023-04-15T07:57:54.387Z,659.7
2023-04-15T07:59:37.876Z,661.4
2023-04-15T08:01:21.357Z,672
2023-04-15T08:06:30.527Z,739.9
2023-04-15T08:08:13.975Z,750.6
2023-04-15T08:09:57.215Z,756.8
2023-04-15T08:11:40.678Z,776.3
2023-04-15T08:13:23.996Z,831.2
2023-04-15T08:15:07.407Z,809.4
2023-04-15T08:16:50.914Z,807.2
2023-04-15T08:18:34.200Z,798.7
2023-04-15T08:22:00.663Z,785.6
2023-04-15T08:23:44.081Z,787.7
2023-04-15T08:25:27.673Z,794.8
2023-04-15T08:27:10.961Z,796.8
2023-04-15T08:28:54.418Z,796.7
2023-04-15T08:30:37.764Z,796.2
2023-04-15T08:32:21.238Z,794.1
2023-04-15T08:34:04.438Z,790.4
2023-04-15T08:35:48.231Z,791.8
2023-04-15T08:37:31.542Z,795.2
2023-04-15T08:39:15.093Z,797.1
2023-04-15T08:40:58.369Z,797.3
2023-04-15T08:42:41.726Z,796.8
2023-04-15T08:44:25.188Z,796.3
2023-04-15T08:46:08.531Z,796.7
2023-04-15T08:47:52.018Z,796
2023-04-15T08:51:18.534Z,800
2023-04-15T08:53:01.874Z,796.3
2023-04-15T08:54:45.295Z,795.8
2023-04-15T08:56:28.605Z,796.4
2023-04-15T08:58:12.019Z,793.2
2023-04-15T08:59:55.489Z,795.1
2023-04-15T09:01:38.948Z,812.1
2023-04-15T09:03:22.326Z,834
2023-04-15T09:06:48.646Z,878.8
2023-04-15T09:08:32.184Z,899.2
2023-04-15T09:10:15.420Z,921.3
2023-04-15T09:11:58.889Z,927.4
2023-04-15T09:13:42.307Z,937.8
2023-04-15T09:15:25.663Z,944.8
2023-04-15T09:17:09.119Z,952.5
2023-04-15T09:18:52.507Z,956.2
2023-04-15T09:20:36.126Z,952.8
2023-04-15T09:22:19.548Z,960.1
2023-04-15T09:24:03.103Z,968.1
2023-04-15T09:25:46.370Z,977.3
2023-04-15T09:27:29.831Z,994.2
2023-04-15T09:29:13.193Z,1009.2
2023-04-15T09:30:56.482Z,1013.8
2023-04-15T09:32:39.891Z,1013.4
2023-04-15T09:36:06.516Z,1057.2
2023-04-15T09:37:49.806Z,1114.6
2023-04-15T09:39:33.171Z,1094.3
2023-04-15T09:41:16.730Z,1082.3
2023-04-15T09:43:00.140Z,1076.6
2023-04-15T09:44:43.604Z,1075.4
2023-04-15T09:46:26.839Z,1068.7
2023-04-15T09:48:10.278Z,1064.6
2023-04-15T09:51:36.776Z,1060.1
2023-04-15T09:53:20.104Z,1057.1
2023-04-15T09:55:03.453Z,1057.8
2023-04-15T09:56:46.930Z,1056.8
2023-04-15T09:58:30.264Z,1055.4
2023-04-15T10:00:13.721Z,1055.4
2023-04-15T10:01:57.131Z,1059.4
2023-04-15T10:03:40.422Z,1060.5
2023-04-15T10:08:49.700Z,1058
2023-04-15T10:10:33.024Z,1062.2
2023-04-15T10:12:16.436Z,1064.1
2023-04-15T10:13:59.887Z,1065.6
2023-04-15T10:15:43.356Z,1069.6
2023-04-15T10:17:26.663Z,1066.5
2023-04-15T10:19:10.012Z,1071.2
2023-04-15T10:20:53.459Z,1089.8
2023-04-15T10:24:19.895Z,1097.3
2023-04-15T10:26:03.414Z,1091.8
2023-04-15T10:27:46.773Z,1082.3
2023-04-15T10:29:30.143Z,1077.4
2023-04-15T10:31:13.463Z,1078.2
2023-04-15T10:32:56.855Z,1077.6
2023-04-15T10:34:40.271Z,1076.8
2023-04-15T10:36:23.691Z,1076.5
2023-04-15T10:39:50.144Z,1083.6
2023-04-15T10:41:33.600Z,1086.1
2023-04-15T10:43:16.921Z,1088.1
2023-04-15T10:45:00.446Z,1087
2023-04-15T10:46:43.742Z,1088.5
2023-04-15T10:48:27.113Z,1098.1
2023-04-15T10:50:10.523Z,1095.8
2023-04-15T10:51:53.930Z,1092.6
2023-04-15T10:55:20.515Z,1105.1
2023-04-15T10:57:03.767Z,1107.7
2023-04-15T10:58:47.288Z,1100.6
2023-04-15T11:00:30.635Z,1097.7
2023-04-15T11:02:14.009Z,1094.3
2023-04-15T11:03:57.433Z,1093.8
2023-04-15T11:05:40.785Z,1090.1
2023-04-15T11:07:24.187Z,1080
2023-04-15T11:10:50.759Z,1061.6
2023-04-15T11:12:34.074Z,1055.6
2023-04-15T11:14:17.466Z,1054.4
2023-04-15T11:16:00.822Z,1047.3
2023-04-15T11:17:44.207Z,1038.2
2023-04-15T11:19:27.701Z,1034.3
2023-04-15T11:21:11.089Z,1034.7
2023-04-15T11:22:54.399Z,1040.7
2023-04-15T11:26:21.026Z,1041.3
2023-04-15T11:28:04.377Z,1037.7
2023-04-15T11:29:47.811Z,1031
2023-04-15T11:31:31.282Z,1022.6
2023-04-15T11:33:14.693Z,1020.5
2023-04-15T11:34:57.861Z,1017.8
2023-04-15T11:36:41.264Z,1014.3
2023-04-15T11:38:24.657Z,1012.2
2023-04-15T11:41:51.126Z,1004.8
2023-04-15T11:43:34.515Z,1003.2
2023-04-15T11:45:17.914Z,997.8
2023-04-15T11:47:01.308Z,1004.1
2023-04-15T11:48:44.702Z,998.5
2023-04-15T11:50:28.095Z,982.6
2023-04-15T11:52:11.525Z,975
2023-04-15T11:53:54.898Z,977.8
2023-04-15T11:59:04.150Z,1034.6
2023-04-15T12:00:47.541Z,1002.8
2023-04-15T12:02:30.931Z,995.6
2023-04-15T12:04:14.333Z,992.1
2023-04-15T12:05:57.719Z,988.7
2023-04-15T12:07:41.124Z,994.3
2023-04-15T12:09:24.520Z,1004.4
2023-04-15T12:11:07.923Z,1034.3
2023-04-15T12:14:34.381Z,1129.7
2023-04-15T12:16:17.790Z,1120.7
2023-04-15T12:18:01.175Z,1125.7
2023-04-15T12:19:44.589Z,1126.1
2023-04-15T12:21:27.977Z,1111.6
2023-04-15T12:23:11.414Z,1104.6
2023-04-15T12:24:54.833Z,1085.4
2023-04-15T12:26:38.234Z,1066.2
2023-04-15T12:30:04.713Z,1084.2
2023-04-15T12:31:48.129Z,1095.4
2023-04-15T12:33:31.474Z,1087.2
2023-04-15T12:35:14.875Z,1076.1
2023-04-15T12:36:58.276Z,1073.6
2023-04-15T12:38:41.659Z,1077.1
2023-04-15T12:40:25.091Z,1080.3
2023-04-15T12:42:08.536Z,1086.5
2023-04-15T12:47:17.711Z,1086.7
2023-04-15T12:49:01.065Z,1086.7
2023-04-15T12:50:44.467Z,1089.2
2023-04-15T12:52:27.911Z,1088.5
2023-04-15T12:54:11.265Z,1086.8
2023-04-15T12:55:54.711Z,1085.8
2023-04-15T12:57:38.058Z,1086.8
2023-04-15T12:59:21.454Z,1091.8
2023-04-15T13:01:05.152Z,1095.1
2023-04-15T13:02:48.555Z,1096.8
2023-04-15T13:04:31.945Z,1098.3
2023-04-15T13:06:15.326Z,1098.4
2023-04-15T13:07:58.754Z,1099
2023-04-15T13:09:42.129Z,1095.3
2023-04-15T13:11:25.535Z,1092.5
2023-04-15T13:13:08.931Z,1092.2
2023-04-15T13:16:35.391Z,1092.1
2023-04-15T13:18:18.816Z,1092.5
2023-04-15T13:20:02.203Z,1091.7
2023-04-15T13:21:45.584Z,1089.7
2023-04-15T13:23:28.985Z,1089.2
2023-04-15T13:25:12.373Z,1090.4
2023-04-15T13:26:55.779Z,1090.7
2023-04-15T13:28:39.180Z,1082.6
2023-04-15T13:33:48.433Z,1084.1
2023-04-15T13:35:31.821Z,1085.1
2023-04-15T13:37:15.220Z,1083.7
2023-04-15T13:38:58.624Z,1085.6
2023-04-15T13:40:42.002Z,1089.1
2023-04-15T13:42:25.405Z,1090.7
2023-04-15T13:44:08.786Z,1088.6
2023-04-15T13:45:52.190Z,1090
2023-04-15T13:47:35.884Z,1093.9
2023-04-15T13:49:19.290Z,1092.5
2023-04-15T13:51:02.693Z,1093.6
2023-04-15T13:52:46.160Z,1092.7
2023-04-15T13:54:29.488Z,1093.7
2023-04-15T13:56:12.880Z,1093.2
2023-04-15T13:57:56.289Z,1095.5
2023-04-15T13:59:39.674Z,1098
2023-04-15T14:03:06.153Z,1098.9
2023-04-15T14:04:49.552Z,1098.8
2023-04-15T14:06:32.945Z,1101.7
2023-04-15T14:08:16.330Z,1104.3
2023-04-15T14:09:59.768Z,1106.5
2023-04-15T14:11:43.131Z,1109.6
2023-04-15T14:13:26.520Z,1112.7
2023-04-15T14:15:09.906Z,1109.2
2023-04-15T14:20:19.163Z,1100.2
2023-04-15T14:22:02.554Z,1103.8
2023-04-15T14:23:45.964Z,1104.8
2023-04-15T14:25:29.361Z,1105.8
2023-04-15T14:27:12.745Z,1105.1
2023-04-15T14:28:56.143Z,1103.3
2023-04-15T14:30:39.546Z,1099.8
2023-04-15T14:32:22.932Z,1101.5
2023-04-15T14:35:49.417Z,1100.9
2023-04-15T14:37:32.819Z,1106.2
2023-04-15T14:39:16.223Z,1114.3
2023-04-15T14:40:59.784Z,1118.8
2023-04-15T14:42:43.214Z,1120.1
2023-04-15T14:44:26.560Z,1129
2023-04-15T14:46:09.926Z,1137
2023-04-15T14:47:53.204Z,1144.7
2023-04-15T14:51:19.666Z,1155.9
2023-04-15T14:53:03.072Z,1163.8
2023-04-15T14:54:46.494Z,1169.8
2023-04-15T14:56:29.858Z,1178.3
2023-04-15T14:58:13.259Z,1184.7
2023-04-15T14:59:56.642Z,1188.6
2023-04-15T15:01:40.055Z,1188
2023-04-15T15:03:23.444Z,1183.3
2023-04-15T15:06:49.910Z,1165.9
2023-04-15T15:08:33.320Z,1141.6
2023-04-15T15:10:16.717Z,1104.2
2023-04-15T15:12:00.121Z,1096.3
2023-04-15T15:13:43.545Z,1077.2
2023-04-15T15:15:27.014Z,1059.2
2023-04-15T15:17:10.298Z,1052.6
2023-04-15T15:18:53.847Z,1050.6
2023-04-15T15:20:37.419Z,1052.5
2023-04-15T15:22:20.809Z,1058.6
2023-04-15T15:24:04.216Z,1062.5
2023-04-15T15:25:47.603Z,1064
2023-04-15T15:27:30.978Z,1071.3
2023-04-15T15:29:14.376Z,1075.1
2023-04-15T15:30:57.802Z,1080.6
2023-04-15T15:32:41.187Z,1081.3
2023-04-15T15:36:07.638Z,1087.2
2023-04-15T15:37:51.045Z,1093.6
2023-04-15T15:39:34.440Z,1103.8
2023-04-15T15:41:17.849Z,1123
2023-04-15T15:43:01.248Z,1135.6
2023-04-15T15:44:44.627Z,1142.6
2023-04-15T15:46:28.038Z,1154.8
2023-04-15T15:48:11.425Z,1167.6
2023-04-15T15:49:55.133Z,1183.2
2023-04-15T15:51:38.529Z,1189.1
2023-04-15T15:53:21.928Z,1183.7
2023-04-15T15:55:05.314Z,1181.7
2023-04-15T15:56:48.722Z,1184.3
2023-04-15T15:58:32.103Z,1187.2
2023-04-15T16:00:15.512Z,1191.1
2023-04-15T16:01:58.904Z,1195.2
2023-04-15T16:05:25.397Z,1201.7
2023-04-15T16:07:08.784Z,1207.7
2023-04-15T16:08:52.179Z,1213.6
2023-04-15T16:10:35.558Z,1216.1
2023-04-15T16:12:18.953Z,1220.3
2023-04-15T16:14:02.396Z,1226.1
2023-04-15T16:15:45.754Z,1231.2
2023-04-15T16:17:29.149Z,1234
2023-04-15T16:20:55.622Z,1237.1
2023-04-15T16:22:39.024Z,1237.8
2023-04-15T16:24:22.420Z,1243.6
2023-04-15T16:26:05.819Z,1246.5
2023-04-15T16:27:49.213Z,1248.7
2023-04-15T16:29:32.609Z,1255.3
2023-04-15T16:31:16.052Z,1257.3
2023-04-15T16:32:59.411Z,1258
2023-04-15T16:36:25.858Z,1260
2023-04-15T16:38:09.261Z,1262.5
2023-04-15T16:39:52.654Z,1263.4
2023-04-15T16:41:36.071Z,1268.5
2023-04-15T16:43:19.454Z,1270.3
2023-04-15T16:45:02.866Z,1270.3
2023-04-15T16:46:46.240Z,1273.2
2023-04-15T16:48:29.643Z,1277.2
2023-04-15T16:51:56.121Z,1274
2023-04-15T16:53:39.528Z,1274.6
2023-04-15T16:55:22.914Z,1278
2023-04-15T16:57:06.308Z,1277.3
2023-04-15T16:58:49.698Z,1277.4
2023-04-15T17:00:33.082Z,1275.2
2023-04-15T17:02:16.488Z,1276.4
2023-04-15T17:03:59.893Z,1278.2
2023-04-15T17:07:26.350Z,1278.9
2023-04-15T17:09:09.770Z,1278.2
2023-04-15T17:10:53.152Z,1275.7
2023-04-15T17:12:36.534Z,1278.7
2023-04-15T17:14:19.962Z,1278.2
2023-04-15T17:16:03.327Z,1277.3
2023-04-15T17:17:46.739Z,1280.2
2023-04-15T17:19:30.119Z,1288.7
2023-04-15T17:21:13.830Z,1291.4
2023-04-15T17:22:57.228Z,1292.1
2023-04-15T17:24:40.617Z,1290.3
2023-04-15T17:26:24.013Z,1293.8
2023-04-15T17:28:07.421Z,1295.3
2023-04-15T17:29:50.837Z,1295.6
2023-04-15T17:31:34.202Z,1292.4
2023-04-15T17:33:17.604Z,1289.8
2023-04-15T17:36:44.075Z,1288.4
2023-04-15T17:38:27.498Z,1288.5
2023-04-15T17:40:10.927Z,1289
2023-04-15T17:41:54.284Z,1291.8
2023-04-15T17:43:37.692Z,1289.7
2023-04-15T17:45:21.061Z,1287.7
2023-04-15T17:47:04.464Z,1283.5
2023-04-15T17:48:47.871Z,1281.6
2023-04-15T17:50:31.267Z,1282.1
2023-04-15T17:53:57.731Z,1278.8
2023-04-15T17:55:41.143Z,1285.7
2023-04-15T17:57:24.524Z,1290.7
2023-04-15T17:59:07.929Z,1296.6
2023-04-15T18:00:51.303Z,1306.3
2023-04-15T18:02:34.707Z,1319.2
2023-04-15T18:04:30.939Z,1326.3
2023-04-15T18:06:01.493Z,1334.1
2023-04-15T18:11:10.737Z,1333.1
2023-04-15T18:12:54.156Z,1336
2023-04-15T18:14:37.541Z,1334.6
2023-04-15T18:16:20.959Z,1332.4
2023-04-15T18:18:04.331Z,1329.5
2023-04-15T18:19:47.733Z,1331
2023-04-15T18:21:31.109Z,1333.5
2023-04-15T18:23:14.536Z,1334.2
2023-04-15T18:26:41.014Z,1336.7
2023-04-15T18:28:24.391Z,1340
2023-04-15T18:30:07.806Z,1344.4
2023-04-15T18:31:51.289Z,1349
2023-04-15T18:33:34.585Z,1351.3
2023-04-15T18:35:17.978Z,1355.7
2023-04-15T18:37:01.381Z,1355.3
2023-04-15T18:38:44.786Z,1354.4
2023-04-15T18:40:28.174Z,1353.8
2023-04-15T18:42:11.864Z,1354.6
2023-04-15T18:43:55.272Z,1356
2023-04-15T18:45:38.680Z,1354.4
2023-04-15T18:47:22.083Z,1352.1
2023-04-15T18:49:05.459Z,1349.1
2023-04-15T18:50:48.869Z,1349.1
2023-04-15T18:52:32.265Z,1348.5
2023-04-15T18:54:15.649Z,1349.5
2023-04-15T18:55:59.059Z,1347.5
2023-04-15T18:59:25.533Z,1345.6
2023-04-15T19:01:08.915Z,1341.6
2023-04-15T19:02:52.315Z,1342.1
2023-04-15T19:04:35.736Z,1343.3
2023-04-15T19:06:19.103Z,1343.4
2023-04-15T19:08:02.503Z,1348.1
2023-04-15T19:09:45.899Z,1352.3
2023-04-15T19:11:29.315Z,1349.1
2023-04-15T19:16:38.549Z,1331.7
2023-04-15T19:18:21.934Z,1333.5
2023-04-15T19:20:05.349Z,1333.5
2023-04-15T19:21:48.742Z,1335.5
2023-04-15T19:23:32.142Z,1341.2
2023-04-15T19:25:15.535Z,1346
2023-04-15T19:26:58.939Z,1345.3
2023-04-15T19:28:42.311Z,1343.8
2023-04-15T19:30:25.719Z,1343.2
2023-04-15T19:33:52.203Z,1347.5
2023-04-15T19:35:35.602Z,1351.4
2023-04-15T19:37:18.994Z,1348.1
2023-04-15T19:39:02.387Z,1350.2
2023-04-15T19:40:45.782Z,1352.3
2023-04-15T19:42:29.173Z,1353.3
2023-04-15T19:44:12.599Z,1354.4
2023-04-15T19:45:55.958Z,1348.4
2023-04-15T19:51:05.214Z,1344.3
2023-04-15T19:52:48.601Z,1347.5
2023-04-15T19:54:32.015Z,1351.4
2023-04-15T19:56:15.416Z,1352.3
2023-04-15T19:57:58.812Z,1350.1
2023-04-15T19:59:42.194Z,1350.8
2023-04-15T20:01:25.594Z,1350.1
2023-04-15T20:03:08.998Z,1346.8
2023-04-15T20:08:18.245Z,1344.2
2023-04-15T20:10:01.683Z,1340.7
2023-04-15T20:11:45.043Z,1339.5
2023-04-15T20:13:28.431Z,1342.6
2023-04-15T20:15:11.825Z,1344.7
2023-04-15T20:16:55.227Z,1339.5
2023-04-15T20:18:38.623Z,1336.1
2023-04-15T20:20:22.022Z,1337
2023-04-15T20:25:31.262Z,1332.8
2023-04-15T20:27:14.661Z,1332.5
2023-04-15T20:28:58.062Z,1331.1
2023-04-15T20:30:41.457Z,1331.2
2023-04-15T20:32:24.868Z,1327
2023-04-15T20:34:08.237Z,1326.4
2023-04-15T20:35:51.637Z,1325.2
2023-04-15T20:37:35.041Z,1324.7
2023-04-15T20:41:01.498Z,1320.4
2023-04-15T20:42:44.917Z,1320.5
2023-04-15T20:44:28.305Z,1326.1
2023-04-15T20:46:11.717Z,1329.7
2023-04-15T20:47:55.107Z,1330.6
2023-04-15T20:49:38.506Z,1330.6
2023-04-15T20:51:21.903Z,1330.7
2023-04-15T20:53:05.296Z,1331.5
2023-04-15T20:54:48.709Z,1333.8
2023-04-15T20:58:15.162Z,1338.1
2023-04-15T20:59:58.575Z,1339.3
2023-04-15T21:01:41.965Z,1339
2023-04-15T21:03:25.364Z,1332.5
2023-04-15T21:05:08.764Z,1330.1
2023-04-15T21:06:52.137Z,1330.3
2023-04-15T21:08:35.538Z,1331
2023-04-15T21:10:18.953Z,1336.6
2023-04-15T21:12:02.338Z,1340.6
2023-04-15T21:15:28.815Z,1342.4
2023-04-15T21:17:12.223Z,1341.3
2023-04-15T21:18:55.704Z,1339.2
2023-04-15T21:20:39.060Z,1338.3
2023-04-15T21:22:22.470Z,1337.6
2023-04-15T21:24:05.820Z,1333.6
2023-04-15T21:25:49.235Z,1331.3
2023-04-15T21:27:32.640Z,1327.6
2023-04-15T21:29:15.994Z,1322.8
2023-04-15T21:34:25.233Z,1323.8
2023-04-15T21:36:08.615Z,1322.4
2023-04-15T21:37:52.026Z,1326.5
2023-04-15T21:39:35.427Z,1328.5
2023-04-15T21:41:18.813Z,1327.2
2023-04-15T21:43:02.216Z,1325.1
2023-04-15T21:44:45.615Z,1323.8
2023-04-15T21:46:29.005Z,1324.1
2023-04-15T21:48:12.413Z,1323.5
2023-04-15T21:51:38.911Z,1320.4
2023-04-15T21:53:22.283Z,1315.1
2023-04-15T21:55:05.726Z,1311.6
2023-04-15T21:56:49.068Z,1310
2023-04-15T21:58:32.458Z,1308.1
2023-04-15T22:00:15.855Z,1305
2023-04-15T22:01:59.264Z,1304.7
2023-04-15T22:03:42.656Z,1303.3
2023-04-15T22:05:26.048Z,1303.2
2023-04-15T22:10:35.292Z,1304.9
2023-04-15T22:12:18.681Z,1307.7
2023-04-15T22:14:02.093Z,1307.1
2023-04-15T22:15:45.483Z,1303.8
2023-04-15T22:17:28.887Z,1303.3
2023-04-15T22:19:12.279Z,1301.4
2023-04-15T22:20:55.783Z,1299.6
2023-04-15T22:22:39.124Z,1298.5
2023-04-15T22:24:22.519Z,1297.1
2023-04-15T22:27:49.015Z,1286.3
2023-04-15T22:29:32.380Z,1280.3
2023-04-15T22:31:15.770Z,1275.8
2023-04-15T22:32:59.139Z,1272.2
2023-04-15T22:34:42.558Z,1269.3
2023-04-15T22:38:09.335Z,1263.7
2023-04-15T22:39:52.742Z,1258.3
2023-04-15T22:41:36.127Z,1255.7
2023-04-15T22:45:02.600Z,1248.7
2023-04-15T22:46:45.989Z,1248.2
2023-04-15T22:48:29.385Z,1249.1
2023-04-15T22:50:12.778Z,1247.3
2023-04-15T22:51:56.192Z,1245.5
2023-04-15T22:53:39.583Z,1246.4
2023-04-15T22:55:22.956Z,1245.4
2023-04-15T22:57:06.381Z,1242.2
2023-04-15T23:00:32.840Z,1246.2
2023-04-15T23:02:16.233Z,1250.1
2023-04-15T23:03:59.621Z,1250.7
2023-04-15T23:05:43.029Z,1248.5
2023-04-15T23:07:26.416Z,1250.1
2023-04-15T23:09:09.807Z,1249.5
2023-04-15T23:10:53.209Z,1251.4
2023-04-15T23:12:36.623Z,1253.3
2023-04-15T23:14:20.021Z,1257.3
2023-04-15T23:16:03.723Z,1260.6
2023-04-15T23:17:47.149Z,1266
2023-04-15T23:19:30.507Z,1271.5
2023-04-15T23:21:13.914Z,1273.4
2023-04-15T23:22:57.294Z,1274.3
2023-04-15T23:24:40.706Z,1273
2023-04-15T23:26:24.111Z,1270.4
2023-04-15T23:28:07.498Z,1266.7
2023-04-15T23:29:50.902Z,1266.2
2023-04-15T23:31:34.606Z,1265.5
2023-04-15T23:33:17.984Z,1267.1
2023-04-15T23:35:01.395Z,1265.7
2023-04-15T23:36:44.815Z,1263.5
2023-04-15T23:38:28.186Z,1261
2023-04-15T23:40:11.592Z,1262
2023-04-15T23:41:54.990Z,1260.4
2023-04-15T23:43:38.375Z,1261.4
2023-04-15T23:45:21.759Z,1260.7
2023-04-15T23:48:48.234Z,1258.5
2023-04-15T23:50:31.628Z,1259.7
2023-04-15T23:52:15.026Z,1261.2
2023-04-15T23:53:58.431Z,1263
2023-04-15T23:55:41.829Z,1264
2023-04-15T23:57:25.232Z,1261.8
2023-04-15T23:59:08.637Z,1260.6
